Time;durP1;ratioP1;P1;durP2;ratioP2;P2;SDS_P1;SDS_P2;PMS_P1;PMS_P2;Temp;Humidity;BMP_temperature;BMP_pressure;BME280_temperature;BME280_humidity;BME280_pressure;Samples;Min_cycle;Max_cycle;Signal;HPM_P1;HPM_P2
2023/12/18 00:00:11;;;;;;;18.30;9.32;;;;;;;;;;6162142;23;20345;-78
2023/12/18 00:02:41;;;;;;;12.63;7.80;;;;;;;;;;6211658;23;20353;-78
2023/12/18 00:05:11;;;;;;;18.20;7.60;;;;;;;;;;6186054;23;20344;-78
2023/12/18 00:07:41;;;;;;;12.10;8.63;;;;;;;;;;6161680;23;20457;-78
2023/12/18 00:10:09;;;;;;;23.00;11.25;;;;;;;;;;6211178;23;20115;-78
2023/12/18 00:12:36;;;;;;;16.42;10.82;;;;;;;;;;6161731;23;20036;-78
2023/12/18 00:15:07;;;;;;;11.20;8.13;;;;;;;;;;6186759;23;20028;-78
2023/12/18 00:17:35;;;;;;;18.30;8.48;;;;;;;;;;6186841;23;20013;-78
2023/12/18 00:20:02;;;;;;;11.40;9.70;;;;;;;;;;6213407;23;20025;-78
2023/12/18 00:22:29;;;;;;;13.20;9.00;;;;;;;;;;6187293;23;20012;-78
2023/12/18 00:24:58;;;;;;;11.77;9.30;;;;;;;;;;6211147;23;20024;-78
2023/12/18 00:27:25;;;;;;;19.58;10.60;;;;;;;;;;6186428;23;20012;-78
2023/12/18 00:29:53;;;;;;;11.13;8.50;;;;;;;;;;6186535;23;20100;-78
2023/12/18 00:32:20;;;;;;;37.33;10.50;;;;;;;;;;6186497;23;20028;-78
2023/12/18 00:34:47;;;;;;;14.43;9.40;;;;;;;;;;6162022;23;20020;-78
2023/12/18 00:37:14;;;;;;;46.60;11.18;;;;;;;;;;6186791;23;20476;-78
2023/12/18 00:39:44;;;;;;;27.42;14.30;;;;;;;;;;6211932;23;20464;-78
2023/12/18 00:42:17;;;;;;;20.92;11.73;;;;;;;;;;6213000;23;20039;-78
2023/12/18 00:44:47;;;;;;;15.82;11.98;;;;;;;;;;6161693;23;20031;-78
2023/12/18 00:47:18;;;;;;;18.58;11.48;;;;;;;;;;6162158;23;20351;-78
2023/12/18 00:49:48;;;;;;;17.33;10.18;;;;;;;;;;6164101;23;20031;-78
2023/12/18 00:52:17;;;;;;;16.25;9.88;;;;;;;;;;6188601;23;20030;-78
2023/12/18 00:54:47;;;;;;;18.92;13.73;;;;;;;;;;6213513;23;20483;-78
2023/12/18 00:57:18;;;;;;;20.73;12.50;;;;;;;;;;6215030;23;20072;-78
2023/12/18 00:59:47;;;;;;;20.90;11.75;;;;;;;;;;6213773;23;20021;-78
2023/12/18 01:02:14;;;;;;;17.05;9.68;;;;;;;;;;6188134;23;20019;-78
2023/12/18 01:04:42;;;;;;;13.30;11.05;;;;;;;;;;6188463;23;20376;-78
2023/12/18 01:07:14;;;;;;;25.17;10.57;;;;;;;;;;6187754;23;20031;-78
2023/12/18 01:09:46;;;;;;;24.58;11.35;;;;;;;;;;6164349;23;20344;-78
2023/12/18 01:12:13;;;;;;;15.38;9.88;;;;;;;;;;6188352;23;20020;-78
2023/12/18 01:14:44;;;;;;;29.33;14.63;;;;;;;;;;6213477;23;20474;-78
2023/12/18 01:17:14;;;;;;;16.35;10.95;;;;;;;;;;6212544;23;20027;-79
2023/12/18 01:19:43;;;;;;;20.35;11.35;;;;;;;;;;6188499;23;20013;-79
2023/12/18 01:22:11;;;;;;;16.70;10.50;;;;;;;;;;6163421;23;20023;-79
2023/12/18 01:24:43;;;;;;;19.17;11.20;;;;;;;;;;6187912;23;20475;-79
2023/12/18 01:27:10;;;;;;;22.35;11.27;;;;;;;;;;6162564;23;20036;-79
2023/12/18 01:29:40;;;;;;;25.98;11.98;;;;;;;;;;6163468;23;20369;-79
2023/12/18 01:32:13;;;;;;;24.73;12.38;;;;;;;;;;6225241;23;20348;-79
2023/12/18 01:34:43;;;;;;;22.42;10.70;;;;;;;;;;6224614;23;20043;-79
2023/12/18 01:37:13;;;;;;;17.73;10.82;;;;;;;;;;6212003;23;20024;-79
2023/12/18 01:39:42;;;;;;;13.93;10.57;;;;;;;;;;6163267;23;20024;-79
2023/12/18 01:42:12;;;;;;;18.88;10.10;;;;;;;;;;6163430;23;20027;-79
2023/12/18 01:44:39;;;;;;;16.45;11.23;;;;;;;;;;6162931;23;20017;-79
2023/12/18 01:47:07;;;;;;;17.55;11.07;;;;;;;;;;6214662;23;20013;-78
2023/12/18 01:49:36;;;;;;;17.25;12.20;;;;;;;;;;6163139;23;20076;-78
2023/12/18 01:52:04;;;;;;;35.58;14.48;;;;;;;;;;6162837;23;20016;-78
2023/12/18 01:54:32;;;;;;;21.15;13.23;;;;;;;;;;6214327;23;20538;-78
2023/12/18 01:57:04;;;;;;;19.42;12.60;;;;;;;;;;6162978;23;20027;-78
2023/12/18 01:59:31;;;;;;;24.50;14.68;;;;;;;;;;6187874;23;20012;-78
2023/12/18 02:02:01;;;;;;;26.40;16.35;;;;;;;;;;6162652;23;20340;-78
2023/12/18 02:04:31;;;;;;;39.17;13.52;;;;;;;;;;6214057;23;20019;-78
2023/12/18 02:07:04;;;;;;;14.40;9.65;;;;;;;;;;6213273;23;20017;-78
2023/12/18 02:09:31;;;;;;;21.58;12.70;;;;;;;;;;6186647;23;20009;-79
2023/12/18 02:12:01;;;;;;;19.65;13.15;;;;;;;;;;6192826;23;20031;-80
2023/12/18 02:14:28;;;;;;;15.25;12.25;;;;;;;;;;6218601;23;20009;-80
2023/12/18 02:16:58;;;;;;;22.30;12.15;;;;;;;;;;6165626;23;20028;-80
2023/12/18 02:19:28;;;;;;;17.10;13.23;;;;;;;;;;6137739;23;20029;-80
2023/12/18 02:21:56;;;;;;;26.70;14.27;;;;;;;;;;6162447;23;20465;-80
2023/12/18 02:24:28;;;;;;;27.20;14.98;;;;;;;;;;6137714;23;20027;-80
2023/12/18 02:26:56;;;;;;;24.20;14.02;;;;;;;;;;6190793;23;20356;-80
2023/12/18 02:29:26;;;;;;;26.17;11.15;;;;;;;;;;6162429;23;20028;-80
2023/12/18 02:31:53;;;;;;;12.95;10.10;;;;;;;;;;6137800;23;20017;-80
2023/12/18 02:34:20;;;;;;;16.52;9.82;;;;;;;;;;6187258;23;20024;-79
2023/12/18 02:36:49;;;;;;;22.30;11.02;;;;;;;;;;6132137;23;20021;-79
2023/12/18 02:39:16;;;;;;;13.93;11.02;;;;;;;;;;6157615;23;20020;-79
2023/12/18 02:41:47;;;;;;;35.10;14.63;;;;;;;;;;6133390;23;20069;-78
2023/12/18 02:44:16;;;;;;;48.97;12.55;;;;;;;;;;6132479;23;20017;-78
2023/12/18 02:46:43;;;;;;;15.10;11.55;;;;;;;;;;6156568;23;20017;-78
2023/12/18 02:49:13;;;;;;;16.52;11.32;;;;;;;;;;6133141;23;20024;-78
2023/12/18 02:51:42;;;;;;;22.73;12.02;;;;;;;;;;6157088;23;20024;-78
2023/12/18 02:54:10;;;;;;;14.10;10.07;;;;;;;;;;6132448;23;20024;-78
2023/12/18 02:56:39;;;;;;;16.35;9.93;;;;;;;;;;6131911;23;20028;-78
2023/12/18 02:59:10;;;;;;;19.48;10.90;;;;;;;;;;6133079;23;20032;-78
2023/12/18 03:01:37;;;;;;;19.75;11.10;;;;;;;;;;6192949;23;20341;-78
2023/12/18 03:04:05;;;;;;;17.17;12.45;;;;;;;;;;6132626;23;20021;-78
2023/12/18 03:06:34;;;;;;;22.55;12.60;;;;;;;;;;6156513;23;20021;-78
2023/12/18 03:09:02;;;;;;;15.70;10.30;;;;;;;;;;6161599;23;20013;-78
2023/12/18 03:11:29;;;;;;;21.13;14.77;;;;;;;;;;6183275;23;20024;-78
2023/12/18 03:13:56;;;;;;;22.48;12.35;;;;;;;;;;6157639;23;20488;-78
2023/12/18 03:16:24;;;;;;;19.80;13.50;;;;;;;;;;6183235;23;20016;-78
2023/12/18 03:18:52;;;;;;;16.75;11.52;;;;;;;;;;6183517;23;20345;-78
2023/12/18 03:21:21;;;;;;;18.23;14.45;;;;;;;;;;6156785;23;20028;-79
2023/12/18 03:23:48;;;;;;;16.42;12.60;;;;;;;;;;6182548;23;20055;-78
2023/12/18 03:26:18;;;;;;;14.45;11.00;;;;;;;;;;6157267;23;20100;-78
2023/12/18 03:28:48;;;;;;;15.82;11.95;;;;;;;;;;6132485;23;20021;-79
2023/12/18 03:31:15;;;;;;;18.70;13.43;;;;;;;;;;6132064;23;20025;-79
2023/12/18 03:33:44;;;;;;;21.10;11.90;;;;;;;;;;6156954;23;20020;-79
2023/12/18 03:36:11;;;;;;;17.40;13.80;;;;;;;;;;6131839;23;20017;-79
2023/12/18 03:38:41;;;;;;;20.33;15.23;;;;;;;;;;6157475;23;20028;-78
2023/12/18 03:41:08;;;;;;;13.60;10.98;;;;;;;;;;6132666;23;20479;-78
2023/12/18 03:43:35;;;;;;;20.15;14.02;;;;;;;;;;6156588;23;20032;-78
2023/12/18 03:46:05;;;;;;;22.05;14.02;;;;;;;;;;6182480;23;20020;-78
2023/12/18 03:48:35;;;;;;;15.15;11.77;;;;;;;;;;6132142;23;20028;-78
2023/12/18 03:51:06;;;;;;;26.10;13.85;;;;;;;;;;6156551;23;20028;-78
2023/12/18 03:53:33;;;;;;;17.42;13.20;;;;;;;;;;6183011;23;20036;-78
2023/12/18 03:56:02;;;;;;;23.02;15.40;;;;;;;;;;6132392;23;20013;-78
2023/12/18 03:58:30;;;;;;;24.10;14.68;;;;;;;;;;6156763;23;20017;-78
2023/12/18 04:00:57;;;;;;;19.05;14.25;;;;;;;;;;6192825;23;20013;-78
2023/12/18 04:03:24;;;;;;;18.95;13.27;;;;;;;;;;6132001;23;20032;-78
2023/12/18 04:05:53;;;;;;;25.48;16.45;;;;;;;;;;6182577;23;20017;-78
2023/12/18 04:08:22;;;;;;;31.35;13.63;;;;;;;;;;6132080;23;20017;-78
2023/12/18 04:10:52;;;;;;;17.40;12.95;;;;;;;;;;6132513;23;20021;-78
2023/12/18 04:13:19;;;;;;;21.67;14.18;;;;;;;;;;6166931;23;20365;-78
2023/12/18 04:15:49;;;;;;;38.58;15.27;;;;;;;;;;6155708;23;20016;-78
2023/12/18 04:18:18;;;;;;;23.45;14.63;;;;;;;;;;6131458;23;20025;-78
2023/12/18 04:20:45;;;;;;;23.58;13.02;;;;;;;;;;6132340;23;20330;-78
2023/12/18 04:23:12;;;;;;;22.55;12.70;;;;;;;;;;6159107;23;20028;-78
2023/12/18 04:25:40;;;;;;;23.10;16.10;;;;;;;;;;6133250;23;20356;-78
2023/12/18 04:28:07;;;;;;;18.58;12.73;;;;;;;;;;6158355;23;20017;-78
2023/12/18 04:30:34;;;;;;;16.90;12.95;;;;;;;;;;6133832;23;20036;-78
2023/12/18 04:33:02;;;;;;;19.45;14.80;;;;;;;;;;6157771;23;20028;-78
2023/12/18 04:35:31;;;;;;;19.45;13.18;;;;;;;;;;6158287;23;20023;-78
2023/12/18 04:38:01;;;;;;;19.67;15.23;;;;;;;;;;6134384;23;20024;-78
2023/12/18 04:40:30;;;;;;;18.42;13.18;;;;;;;;;;6132802;23;20020;-78
2023/12/18 04:43:01;;;;;;;16.95;11.38;;;;;;;;;;6158368;23;20029;-78
2023/12/18 04:45:31;;;;;;;17.38;14.05;;;;;;;;;;6164997;23;20017;-78
2023/12/18 04:47:58;;;;;;;18.33;13.77;;;;;;;;;;6158475;23;20017;-78
2023/12/18 04:50:30;;;;;;;18.75;12.82;;;;;;;;;;6168077;23;20020;-78
2023/12/18 04:52:57;;;;;;;15.98;11.68;;;;;;;;;;6132450;23;20021;-78
2023/12/18 04:55:24;;;;;;;19.83;13.23;;;;;;;;;;6184070;23;20498;-78
2023/12/18 04:57:51;;;;;;;16.45;12.55;;;;;;;;;;6158110;23;20017;-78
2023/12/18 05:00:20;;;;;;;17.20;13.25;;;;;;;;;;6158980;23;20046;-78
2023/12/18 05:02:49;;;;;;;17.30;12.13;;;;;;;;;;6194357;23;20023;-78
2023/12/18 05:05:19;;;;;;;20.30;14.18;;;;;;;;;;6132734;23;20027;-78
2023/12/18 05:07:48;;;;;;;18.75;14.27;;;;;;;;;;6157526;23;20024;-78
2023/12/18 05:10:19;;;;;;;19.67;12.55;;;;;;;;;;6194914;23;20016;-78
2023/12/18 05:12:48;;;;;;;17.23;11.77;;;;;;;;;;6157990;23;20021;-78
2023/12/18 05:15:15;;;;;;;16.13;11.48;;;;;;;;;;6133429;23;20024;-78
2023/12/18 05:17:46;;;;;;;18.52;13.05;;;;;;;;;;6157612;23;20009;-78
2023/12/18 05:20:14;;;;;;;18.25;14.15;;;;;;;;;;6158310;23;20017;-78
2023/12/18 05:22:41;;;;;;;17.42;12.18;;;;;;;;;;6184962;23;20457;-78
2023/12/18 05:25:09;;;;;;;17.30;12.93;;;;;;;;;;6157351;23;20024;-78
2023/12/18 05:27:41;;;;;;;21.55;14.65;;;;;;;;;;6158051;23;20028;-78
2023/12/18 05:30:09;;;;;;;18.27;13.60;;;;;;;;;;6184196;23;20480;-78
2023/12/18 05:32:36;;;;;;;15.68;11.80;;;;;;;;;;6132848;23;20465;-78
2023/12/18 05:35:05;;;;;;;20.45;12.43;;;;;;;;;;6132854;23;20017;-78
2023/12/18 05:37:32;;;;;;;21.02;13.82;;;;;;;;;;6158171;23;20017;-78
2023/12/18 05:39:59;;;;;;;21.23;12.50;;;;;;;;;;6157598;23;20021;-78
2023/12/18 05:42:27;;;;;;;18.67;12.55;;;;;;;;;;6184540;23;20017;-78
2023/12/18 05:44:54;;;;;;;22.45;12.43;;;;;;;;;;6157819;23;20024;-78
2023/12/18 05:47:21;;;;;;;20.60;16.35;;;;;;;;;;6183912;23;20013;-78
2023/12/18 05:49:48;;;;;;;20.80;13.13;;;;;;;;;;6157399;23;20028;-79
2023/12/18 05:52:22;;;;;;;16.92;11.93;;;;;;;;;;6168450;23;20024;-79
2023/12/18 05:54:54;;;;;;;18.80;13.75;;;;;;;;;;6157390;23;20532;-79
2023/12/18 05:57:23;;;;;;;20.38;13.00;;;;;;;;;;6184481;23;20009;-79
2023/12/18 05:59:55;;;;;;;27.10;18.98;;;;;;;;;;6133920;23;20024;-79
2023/12/18 06:02:25;;;;;;;18.75;15.68;;;;;;;;;;6157715;23;20028;-79
2023/12/18 06:04:52;;;;;;;25.73;13.95;;;;;;;;;;6184511;23;20024;-79
2023/12/18 06:07:19;;;;;;;17.95;15.20;;;;;;;;;;6157605;23;20021;-79
2023/12/18 06:09:53;;;;;;;21.02;14.05;;;;;;;;;;6185143;23;20020;-78
2023/12/18 06:12:20;;;;;;;17.35;12.85;;;;;;;;;;6133052;23;20647;-78
2023/12/18 06:14:47;;;;;;;18.55;14.52;;;;;;;;;;6157614;23;20021;-78
2023/12/18 06:17:17;;;;;;;20.05;14.20;;;;;;;;;;6155918;23;20353;-78
2023/12/18 06:19:44;;;;;;;43.97;14.68;;;;;;;;;;6133327;23;20028;-78
2023/12/18 06:22:14;;;;;;;38.00;15.43;;;;;;;;;;6132719;23;20021;-78
2023/12/18 06:24:43;;;;;;;24.30;15.45;;;;;;;;;;6157514;23;20017;-78
2023/12/18 06:27:12;;;;;;;23.35;16.25;;;;;;;;;;6132226;23;20017;-78
2023/12/18 06:29:39;;;;;;;22.35;15.60;;;;;;;;;;6157406;23;20633;-78
2023/12/18 06:32:09;;;;;;;23.20;15.05;;;;;;;;;;6133773;23;20036;-78
2023/12/18 06:34:38;;;;;;;21.90;14.27;;;;;;;;;;6133361;23;20472;-79
2023/12/18 06:37:08;;;;;;;22.52;16.73;;;;;;;;;;6157125;23;20021;-79
2023/12/18 06:39:35;;;;;;;20.23;14.13;;;;;;;;;;6157531;23;20487;-78
2023/12/18 06:42:07;;;;;;;40.88;17.55;;;;;;;;;;6133108;23;20027;-78
2023/12/18 06:44:39;;;;;;;20.52;12.73;;;;;;;;;;6193812;23;20024;-78
2023/12/18 06:47:06;;;;;;;21.50;16.02;;;;;;;;;;6182920;23;20020;-78
2023/12/18 06:49:33;;;;;;;19.77;14.68;;;;;;;;;;6133005;23;20024;-78
2023/12/18 06:52:00;;;;;;;20.83;12.63;;;;;;;;;;6157174;23;20024;-78
2023/12/18 06:54:30;;;;;;;20.17;16.38;;;;;;;;;;6157197;23;20024;-78
2023/12/18 06:56:57;;;;;;;21.80;14.20;;;;;;;;;;6132250;23;20624;-78
2023/12/18 06:59:24;;;;;;;28.65;16.40;;;;;;;;;;6193636;23;20464;-78
2023/12/18 07:01:53;;;;;;;21.67;12.55;;;;;;;;;;6132680;23;20024;-78
2023/12/18 07:04:20;;;;;;;20.65;13.35;;;;;;;;;;6157312;23;20353;-79
2023/12/18 07:06:47;;;;;;;19.73;16.02;;;;;;;;;;6156820;23;20036;-79
2023/12/18 07:09:14;;;;;;;19.15;13.52;;;;;;;;;;6151712;23;20470;-78
2023/12/18 07:11:44;;;;;;;27.58;15.73;;;;;;;;;;6127647;23;20022;-78
2023/12/18 07:14:11;;;;;;;50.22;18.90;;;;;;;;;;6153222;23;20018;-78
2023/12/18 07:16:38;;;;;;;18.48;13.50;;;;;;;;;;6151813;23;20022;-78
2023/12/18 07:19:09;;;;;;;45.70;18.10;;;;;;;;;;6151879;23;20022;-78
2023/12/18 07:21:37;;;;;;;23.50;15.98;;;;;;;;;;6127559;23;20017;-78
2023/12/18 07:24:04;;;;;;;27.73;16.02;;;;;;;;;;6127286;23;20021;-78
2023/12/18 07:26:32;;;;;;;22.40;15.65;;;;;;;;;;6151855;23;20314;-78
2023/12/18 07:28:59;;;;;;;19.48;13.27;;;;;;;;;;6151952;23;20024;-78
2023/12/18 07:31:26;;;;;;;18.35;14.32;;;;;;;;;;6152275;23;20025;-78
2023/12/18 07:33:53;;;;;;;20.48;14.48;;;;;;;;;;6153808;23;20014;-78
2023/12/18 07:36:22;;;;;;;23.52;14.55;;;;;;;;;;6151619;23;20024;-78
2023/12/18 07:38:51;;;;;;;24.42;15.02;;;;;;;;;;6127265;23;20013;-78
2023/12/18 07:41:19;;;;;;;17.83;14.02;;;;;;;;;;6151152;23;20036;-78
2023/12/18 07:43:46;;;;;;;22.15;15.98;;;;;;;;;;6151953;23;20024;-78
2023/12/18 07:46:19;;;;;;;16.42;10.98;;;;;;;;;;6151214;23;20484;-78
2023/12/18 07:48:47;;;;;;;24.05;15.48;;;;;;;;;;6161524;23;20017;-78
2023/12/18 07:51:14;;;;;;;23.35;15.32;;;;;;;;;;6151990;23;20481;-78
2023/12/18 07:53:44;;;;;;;17.55;13.70;;;;;;;;;;6127241;23;20353;-78
2023/12/18 07:56:11;;;;;;;18.25;13.65;;;;;;;;;;6151353;23;20013;-78
2023/12/18 07:58:40;;;;;;;21.95;14.32;;;;;;;;;;6153570;23;20033;-78
2023/12/18 08:01:07;;;;;;;25.00;16.70;;;;;;;;;;6127398;23;20024;-78
2023/12/18 08:03:34;;;;;;;20.73;14.80;;;;;;;;;;6153883;23;20024;-78
2023/12/18 08:06:06;;;;;;;20.77;13.52;;;;;;;;;;6127215;23;20028;-78
2023/12/18 08:11:30;;;;;;;15.90;13.35;;;;;;;;;;6094930;23;20018;-78
2023/12/18 08:13:57;;;;;;;25.70;16.48;;;;;;;;;;6073218;23;20025;-78
2023/12/18 08:16:27;;;;;;;18.85;14.05;;;;;;;;;;6068914;23;20021;-78
2023/12/18 08:18:54;;;;;;;21.98;15.23;;;;;;;;;;6045169;23;20367;-79
2023/12/18 08:21:21;;;;;;;26.15;17.55;;;;;;;;;;6094715;23;20022;-78
2023/12/18 08:23:48;;;;;;;26.10;15.43;;;;;;;;;;6044874;23;20030;-78
2023/12/18 08:26:18;;;;;;;21.10;15.68;;;;;;;;;;6068737;23;20489;-79
2023/12/18 08:28:47;;;;;;;20.13;15.43;;;;;;;;;;6078787;23;20654;-78
2023/12/18 08:31:14;;;;;;;18.67;14.80;;;;;;;;;;6052162;23;20026;-79
2023/12/18 08:33:41;;;;;;;23.55;16.50;;;;;;;;;;6078979;23;20363;-79
2023/12/18 08:36:08;;;;;;;23.80;18.40;;;;;;;;;;6107495;23;20019;-79
2023/12/18 08:38:39;;;;;;;27.45;16.15;;;;;;;;;;6078083;23;20116;-79
2023/12/18 08:41:08;;;;;;;22.45;16.70;;;;;;;;;;6078058;23;20041;-79
2023/12/18 08:43:35;;;;;;;21.90;16.15;;;;;;;;;;6070400;23;20025;-78
2023/12/18 08:46:06;;;;;;;23.35;15.77;;;;;;;;;;6093850;23;20025;-78
2023/12/18 08:48:33;;;;;;;26.25;17.38;;;;;;;;;;6068715;23;20018;-79
2023/12/18 08:51:03;;;;;;;23.17;16.55;;;;;;;;;;6068826;23;20029;-78
2023/12/18 08:53:31;;;;;;;16.42;14.68;;;;;;;;;;6087852;23;20021;-79
2023/12/18 08:55:58;;;;;;;20.13;14.60;;;;;;;;;;6080615;23;20019;-79
2023/12/18 08:58:26;;;;;;;21.70;16.42;;;;;;;;;;6080185;23;20021;-79
2023/12/18 09:00:53;;;;;;;26.20;18.08;;;;;;;;;;6070476;23;20038;-79
